Dresden, New York
Current Conditions -  °F | °C
As of 4:53 PM on Monday 22 Dec 2014 (Local Time) from KPEO Reporting Station
Overcast Overcast  
Wind Chill: 30°   Ceiling: 2700
Heat Index: 35°   Visibility: 10mi
Dew Point: 25°   Wind: 6mph
Humidity: 67%   Direction: 160°SSE
Pressure: 30.13"   Gusts: NA
Location:  42.68°N, 76.96°W
Report Text: KPEO 222153Z AUTO 16005KT 10SM OVC027 02/M04 A3013 RMK AO2 SLP214 T00171039
Loading
Personal Weather Stations






























Interactive Weather Map New forecast layout! Learn more

10-Day Weather Forecast

Advertisements
Track Severe Weather on mobile